Time;durP1;ratioP1;P1;durP2;ratioP2;P2;SDS_P1;SDS_P2;PMS_P1;PMS_P2;Temp;Humidity;BMP_temperature;BMP_pressure;BME280_temperature;BME280_humidity;BME280_pressure;Samples;Min_cycle;Max_cycle;Signal;HPM_P1;HPM_P2
2024/01/18 00:01:52;;;;;;;49.60;18.70;;;;;;;-3.48;97.02;97074.11;108747;1264;73541;-63
2024/01/18 00:04:41;;;;;;;49.20;18.30;;;;;;;-3.41;97.21;97071.59;108613;1264;57344;-63
2024/01/18 00:07:29;;;;;;;42.90;17.90;;;;;;;-3.34;97.41;97068.86;108029;1264;1003117;-62
2024/01/18 00:10:18;;;;;;;43.60;18.40;;;;;;;-3.28;97.47;97067.92;108696;1264;71784;-62
2024/01/18 00:13:05;;;;;;;42.70;17.50;;;;;;;-3.24;96.95;97066.41;108808;1264;67001;-62
2024/01/18 00:15:53;;;;;;;45.40;18.10;;;;;;;-3.21;96.46;97072.09;108627;1265;72801;-63
2024/01/18 00:18:41;;;;;;;36.70;15.60;;;;;;;-3.19;96.37;97080.48;108744;1265;57454;-64
2024/01/18 00:21:29;;;;;;;44.80;17.90;;;;;;;-3.16;96.60;97082.85;107964;1268;1002683;-63
2024/01/18 00:24:17;;;;;;;46.70;19.20;;;;;;;-3.14;96.48;97083.06;108656;1265;74195;-62
2024/01/18 00:27:06;;;;;;;50.30;19.80;;;;;;;-3.09;96.64;97087.73;108652;1265;65783;-64
2024/01/18 00:29:54;;;;;;;46.10;19.20;;;;;;;-3.03;96.28;97089.64;108618;1265;72741;-61
2024/01/18 00:32:42;;;;;;;50.50;20.10;;;;;;;-2.98;96.23;97086.27;108712;1265;58929;-62
2024/01/18 00:35:31;;;;;;;46.50;18.00;;;;;;;-2.93;95.97;97086.99;108566;1264;60245;-62
2024/01/18 00:38:21;;;;;;;46.20;18.40;;;;;;;-2.91;95.49;97081.66;108723;1264;72990;-63
2024/01/18 00:41:09;;;;;;;45.50;16.80;;;;;;;-2.91;95.29;97079.89;108014;1263;1002451;-63
2024/01/18 00:43:57;;;;;;;39.70;17.00;;;;;;;-2.91;95.04;97081.27;107965;1264;1002275;-62
2024/01/18 00:46:44;;;;;;;43.80;18.30;;;;;;;-2.93;95.14;97073.97;107980;1264;1002611;-62
2024/01/18 00:49:33;;;;;;;43.00;16.60;;;;;;;-2.94;95.15;97078.22;107653;1265;1002978;-63
2024/01/18 00:52:21;;;;;;;40.60;16.20;;;;;;;-2.99;95.19;97069.33;108802;1263;73072;-63
2024/01/18 00:55:10;;;;;;;47.70;17.60;;;;;;;-2.96;94.89;97072.80;108712;1264;67945;-63
2024/01/18 00:58:00;;;;;;;37.70;15.60;;;;;;;-2.98;95.07;97071.89;108687;1266;72464;-63
2024/01/18 01:00:48;;;;;;;39.50;17.90;;;;;;;-3.00;95.02;97070.34;108774;1264;58251;-64
2024/01/18 01:03:37;;;;;;;45.90;19.10;;;;;;;-3.00;95.14;97067.86;108796;1265;58808;-63
2024/01/18 01:06:25;;;;;;;37.60;15.80;;;;;;;-2.98;95.60;97069.79;108631;1264;72808;-64
2024/01/18 01:09:14;;;;;;;41.80;16.40;;;;;;;-2.95;95.51;97071.69;107968;1263;1002693;-62
2024/01/18 01:12:02;;;;;;;41.60;18.20;;;;;;;-2.94;95.35;97072.60;108029;1264;1002850;-63
2024/01/18 01:14:50;;;;;;;42.30;16.50;;;;;;;-2.91;95.20;97074.70;108709;1265;57350;-63
2024/01/18 01:17:38;;;;;;;42.60;17.70;;;;;;;-2.91;95.14;97080.40;108799;1266;59046;-63
2024/01/18 01:20:26;;;;;;;34.90;15.50;;;;;;;-2.93;95.06;97074.65;107980;1264;1002481;-64
2024/01/18 01:23:14;;;;;;;42.00;16.30;;;;;;;-2.96;94.67;97063.61;107970;1266;1002591;-62
2024/01/18 01:26:02;;;;;;;41.00;16.30;;;;;;;-2.98;94.93;97055.23;107931;1264;1002244;-63
2024/01/18 01:28:50;;;;;;;35.90;14.20;;;;;;;-2.99;94.98;97060.18;108674;1264;58384;-63
2024/01/18 01:31:38;;;;;;;44.10;18.10;;;;;;;-2.99;95.20;97053.92;108817;1264;58942;-63
2024/01/18 01:34:25;;;;;;;42.00;16.80;;;;;;;-2.96;95.16;97060.48;108785;1264;73062;-63
2024/01/18 01:37:13;;;;;;;40.90;17.50;;;;;;;-2.94;95.23;97062.90;108785;1264;67609;-62
2024/01/18 01:40:01;;;;;;;46.60;19.50;;;;;;;-2.91;95.35;97066.36;108810;1264;72504;-64
2024/01/18 01:42:49;;;;;;;45.50;18.80;;;;;;;-2.86;95.27;97063.80;108765;1264;57849;-62
2024/01/18 01:45:37;;;;;;;35.40;15.20;;;;;;;-2.83;95.35;97062.30;108810;1264;60061;-63
2024/01/18 01:48:25;;;;;;;38.60;15.40;;;;;;;-2.82;94.89;97061.75;108782;1264;73052;-61
2024/01/18 01:51:14;;;;;;;36.60;15.70;;;;;;;-2.82;94.87;97062.79;108647;1264;68885;-62
2024/01/18 01:54:05;;;;;;;39.60;16.00;;;;;;;-2.83;94.44;97059.06;108764;1264;73487;-64
2024/01/18 01:56:54;;;;;;;35.50;15.90;;;;;;;-2.85;94.74;97058.30;108778;1264;57335;-64
2024/01/18 01:59:42;;;;;;;41.50;17.80;;;;;;;-2.87;94.46;97065.41;108676;1264;60064;-63
2024/01/18 02:02:32;;;;;;;44.30;18.50;;;;;;;-2.88;94.75;97069.67;108036;1264;1002034;-63
2024/01/18 02:05:20;;;;;;;42.80;19.30;;;;;;;-2.85;95.11;97074.48;108726;1264;66678;-63
2024/01/18 02:08:12;;;;;;;43.40;19.00;;;;;;;-2.82;94.87;97078.45;108786;1264;73377;-62
2024/01/18 02:11:00;;;;;;;40.90;18.80;;;;;;;-2.81;94.47;97075.59;108690;1263;57280;-63
2024/01/18 02:13:48;;;;;;;42.30;17.90;;;;;;;-2.80;94.47;97072.88;108791;1265;58705;-62
2024/01/18 02:16:36;;;;;;;39.60;18.10;;;;;;;-2.79;94.66;97078.20;108777;1265;71671;-63
2024/01/18 02:19:24;;;;;;;35.80;15.60;;;;;;;-2.79;94.09;97074.92;108685;1264;68614;-63
2024/01/18 02:22:15;;;;;;;37.70;15.60;;;;;;;-2.78;94.33;97073.25;108691;1266;72440;-63
2024/01/18 02:25:27;;;;;;;42.00;16.50;;;;;;;-2.78;94.26;97079.02;108745;1265;57410;-63
2024/01/18 02:28:16;;;;;;;34.20;14.60;;;;;;;-2.81;93.95;97082.66;108640;1265;60248;-64
2024/01/18 02:31:04;;;;;;;37.10;15.10;;;;;;;-2.85;93.67;97084.92;108653;1266;72884;-64
2024/01/18 02:33:52;;;;;;;39.60;16.90;;;;;;;-2.88;94.27;97086.84;108766;1265;67909;-64
2024/01/18 02:36:40;;;;;;;46.90;18.90;;;;;;;-2.90;94.15;97087.15;108702;1266;72656;-63
2024/01/18 02:39:28;;;;;;;44.20;18.10;;;;;;;-2.91;93.94;97085.66;107750;1266;1002208;-63
2024/01/18 02:42:16;;;;;;;43.00;16.10;;;;;;;-2.91;94.10;97085.46;108642;1267;61081;-63
2024/01/18 02:45:06;;;;;;;36.60;16.30;;;;;;;-2.90;93.90;97088.15;108677;1266;73092;-65
2024/01/18 02:47:54;;;;;;;43.70;17.40;;;;;;;-2.90;93.86;97090.23;108557;1265;68993;-63
2024/01/18 02:50:43;;;;;;;36.00;14.90;;;;;;;-2.89;94.19;97087.96;108711;1266;73610;-62
2024/01/18 02:53:31;;;;;;;34.60;15.10;;;;;;;-2.91;93.88;97083.03;108721;1265;57420;-62
2024/01/18 02:56:21;;;;;;;31.40;14.10;;;;;;;-2.92;94.18;97078.80;108550;1265;59066;-62
2024/01/18 02:59:09;;;;;;;35.00;14.70;;;;;;;-2.94;94.44;97079.45;108638;1265;72769;-63
2024/01/18 03:01:57;;;;;;;35.30;13.70;;;;;;;-2.95;94.57;97081.44;108758;1265;66455;-63
2024/01/18 03:04:45;;;;;;;39.70;16.70;;;;;;;-2.98;94.31;97083.84;108584;1265;70621;-64
2024/01/18 03:07:33;;;;;;;37.00;15.70;;;;;;;-3.01;94.19;97085.66;108727;1266;59321;-62
2024/01/18 03:10:22;;;;;;;42.00;17.30;;;;;;;-3.02;94.78;97087.63;108717;1265;59977;-65
2024/01/18 03:13:10;;;;;;;33.70;15.10;;;;;;;-3.03;94.65;97089.58;108644;1266;73075;-64
2024/01/18 03:15:57;;;;;;;52.70;21.90;;;;;;;-3.03;94.70;97091.15;108676;1266;66599;-63
2024/01/18 03:18:46;;;;;;;45.80;18.60;;;;;;;-3.07;94.83;97082.07;107960;1266;1014966;-63
2024/01/18 03:21:34;;;;;;;45.80;19.40;;;;;;;-3.04;94.88;97088.84;107899;1266;1002214;-63
2024/01/18 03:24:22;;;;;;;36.70;14.80;;;;;;;-3.06;95.18;97087.52;108762;1265;60704;-63
2024/01/18 03:27:10;;;;;;;38.70;16.60;;;;;;;-3.10;95.00;97088.65;108722;1264;73883;-64
2024/01/18 03:29:58;;;;;;;37.00;17.30;;;;;;;-3.15;94.85;97089.19;108741;1265;67680;-65
2024/01/18 03:32:47;;;;;;;36.60;17.60;;;;;;;-3.17;95.08;97094.55;107962;1265;1002726;-63
2024/01/18 03:35:35;;;;;;;42.30;17.00;;;;;;;-3.22;95.15;97093.16;108646;1266;57279;-66
2024/01/18 03:38:22;;;;;;;33.60;13.90;;;;;;;-3.28;95.09;97093.02;108623;1266;58788;-63
2024/01/18 03:41:11;;;;;;;39.70;17.40;;;;;;;-3.36;95.48;97096.35;108732;1266;73076;-63
2024/01/18 03:43:58;;;;;;;43.10;17.40;;;;;;;-3.43;95.41;97102.34;108726;1268;67891;-65
2024/01/18 03:46:46;;;;;;;44.20;19.30;;;;;;;-3.48;95.71;97105.14;108706;1266;72701;-64
2024/01/18 03:49:34;;;;;;;51.60;21.50;;;;;;;-3.53;95.75;97112.59;108671;1265;60029;-64
2024/01/18 03:52:23;;;;;;;54.60;22.50;;;;;;;-3.56;96.25;97119.73;108698;1265;60193;-63
2024/01/18 03:55:11;;;;;;;43.30;19.60;;;;;;;-3.60;96.29;97122.45;108694;1266;70780;-64
2024/01/18 03:57:59;;;;;;;42.50;17.80;;;;;;;-3.64;96.73;97126.55;107932;1267;1002410;-63
2024/01/18 04:00:47;;;;;;;41.10;18.40;;;;;;;-3.70;97.15;97134.15;108719;1266;72537;-63
2024/01/18 04:03:36;;;;;;;36.50;16.00;;;;;;;-3.76;97.24;97140.98;107957;1266;1014984;-62
2024/01/18 04:06:24;;;;;;;46.40;19.40;;;;;;;-3.83;97.66;97148.91;108678;1265;57927;-62
2024/01/18 04:09:12;;;;;;;44.30;18.60;;;;;;;-3.90;98.00;97141.02;108699;1265;71983;-63
2024/01/18 04:12:00;;;;;;;40.80;15.70;;;;;;;-3.95;98.07;97134.60;108773;1266;67940;-63
2024/01/18 04:14:47;;;;;;;37.50;16.60;;;;;;;-4.00;98.56;97142.05;108745;1265;72586;-62
2024/01/18 04:17:35;;;;;;;45.60;20.60;;;;;;;-4.04;98.72;97145.96;108562;1266;58016;-65
2024/01/18 04:20:27;;;;;;;37.20;16.00;;;;;;;-4.05;98.98;97147.74;108693;1265;58217;-63
2024/01/18 04:23:15;;;;;;;43.40;18.70;;;;;;;-4.06;99.45;97151.23;108740;1266;70854;-62
2024/01/18 04:26:03;;;;;;;40.30;18.50;;;;;;;-4.03;99.79;97154.72;108765;1266;67649;-62
2024/01/18 04:28:51;;;;;;;42.10;17.80;;;;;;;-4.01;99.86;97164.92;108564;1266;72785;-63
2024/01/18 04:31:39;;;;;;;41.50;18.20;;;;;;;-3.97;99.89;97163.33;108642;1266;57166;-62
2024/01/18 04:34:27;;;;;;;41.50;16.10;;;;;;;-3.94;99.87;97157.75;107919;1265;1002720;-62
2024/01/18 04:37:15;;;;;;;37.60;16.10;;;;;;;-3.93;99.85;97158.04;108641;1266;72004;-64
2024/01/18 04:40:03;;;;;;;31.10;12.60;;;;;;;-3.94;99.85;97153.95;107977;1266;1002321;-61
2024/01/18 04:42:52;;;;;;;40.30;16.90;;;;;;;-3.96;99.99;97158.55;107948;1268;1002394;-62
2024/01/18 04:45:40;;;;;;;29.70;12.60;;;;;;;-3.95;100.00;97155.35;108677;1267;58712;-63
2024/01/18 04:48:28;;;;;;;38.00;15.30;;;;;;;-3.92;100.00;97160.27;108597;1265;60063;-63
2024/01/18 04:51:17;;;;;;;40.00;18.20;;;;;;;-3.89;100.00;97166.61;108658;1266;71760;-62
2024/01/18 04:54:05;;;;;;;40.30;18.30;;;;;;;-3.83;100.00;97168.60;108759;1265;67866;-62
2024/01/18 04:56:53;;;;;;;46.30;19.80;;;;;;;-3.74;100.00;97167.39;108623;1265;72600;-62
2024/01/18 04:59:41;;;;;;;46.30;20.40;;;;;;;-3.67;100.00;97168.31;108681;1265;58509;-64
2024/01/18 05:02:29;;;;;;;51.10;21.40;;;;;;;-3.61;100.00;97169.45;108643;1265;61377;-63
2024/01/18 05:05:19;;;;;;;59.80;23.90;;;;;;;-3.55;100.00;97171.31;108715;1266;72926;-64
2024/01/18 05:08:08;;;;;;;40.00;17.20;;;;;;;-3.50;100.00;97173.04;108541;1266;67584;-63
2024/01/18 05:10:56;;;;;;;49.50;19.90;;;;;;;-3.44;100.00;97175.64;108646;1267;72465;-64
2024/01/18 05:13:44;;;;;;;36.30;14.60;;;;;;;-3.39;100.00;97178.59;108660;1266;57719;-63
2024/01/18 05:16:33;;;;;;;36.20;15.90;;;;;;;-3.35;100.00;97184.24;108785;1266;59085;-63
2024/01/18 05:19:21;;;;;;;35.80;15.20;;;;;;;-3.33;100.00;97186.86;108679;1266;73738;-64
2024/01/18 05:22:09;;;;;;;37.50;15.70;;;;;;;-3.30;100.00;97193.04;108671;1267;68916;-65
2024/01/18 05:24:59;;;;;;;38.10;16.30;;;;;;;-3.28;100.00;97189.25;108635;1266;72436;-65
2024/01/18 05:27:47;;;;;;;39.30;18.20;;;;;;;-3.26;100.00;97191.23;108567;1264;59546;-63
2024/01/18 05:30:34;;;;;;;40.80;17.90;;;;;;;-3.22;100.00;97193.23;108547;1266;59590;-65
2024/01/18 05:33:22;;;;;;;37.70;18.20;;;;;;;-3.17;100.00;97190.84;108682;1264;73739;-63
2024/01/18 05:36:11;;;;;;;36.30;17.60;;;;;;;-3.17;100.00;97192.92;107981;1264;1003280;-64
2024/01/18 05:38:59;;;;;;;33.30;15.10;;;;;;;-3.09;100.00;97200.84;108638;1264;72437;-63
2024/01/18 05:41:48;;;;;;;32.90;14.40;;;;;;;-3.07;100.00;97202.27;108709;1264;57368;-63
2024/01/18 05:44:36;;;;;;;34.80;13.90;;;;;;;-3.04;100.00;97203.16;108660;1268;58816;-63
2024/01/18 05:47:24;;;;;;;37.10;14.10;;;;;;;-3.04;100.00;97201.90;108499;1264;74533;-66
2024/01/18 05:50:12;;;;;;;36.10;16.80;;;;;;;-3.05;100.00;97200.07;108681;1267;65676;-66
2024/01/18 05:53:00;;;;;;;44.30;18.30;;;;;;;-3.11;100.00;97193.84;108518;1264;72704;-67
2024/01/18 05:55:48;;;;;;;43.80;18.20;;;;;;;-3.16;100.00;97193.52;108680;1264;57734;-70
2024/01/18 05:58:36;;;;;;;44.30;20.10;;;;;;;-3.21;100.00;97199.61;108788;1264;59039;-64
2024/01/18 06:01:26;;;;;;;42.00;18.20;;;;;;;-3.29;100.00;97207.02;108636;1264;71643;-64
2024/01/18 06:04:14;;;;;;;39.00;18.20;;;;;;;-3.37;100.00;97211.02;108034;1264;1002900;-62
2024/01/18 06:07:01;;;;;;;35.90;15.20;;;;;;;-3.42;100.00;97207.90;108617;1264;73466;-64
2024/01/18 06:09:50;;;;;;;38.40;17.40;;;;;;;-3.48;100.00;97214.23;108560;1264;60393;-65
2024/01/18 06:12:38;;;;;;;40.90;17.20;;;;;;;-3.56;100.00;97216.09;107911;1264;1002855;-65
2024/01/18 06:15:27;;;;;;;31.70;14.30;;;;;;;-3.63;100.00;97216.55;108606;1264;73094;-67
2024/01/18 06:18:15;;;;;;;36.10;14.80;;;;;;;-3.72;100.00;97224.93;107908;1264;1002254;-63
2024/01/18 06:21:06;;;;;;;36.20;16.00;;;;;;;-3.82;100.00;97224.52;108722;1264;71521;-64
2024/01/18 06:23:55;;;;;;;37.40;16.20;;;;;;;-3.89;100.00;97233.48;108641;1264;58712;-66
2024/01/18 06:26:43;;;;;;;39.30;16.40;;;;;;;-3.95;100.00;97239.39;108762;1264;58830;-65
2024/01/18 06:29:31;;;;;;;36.10;16.30;;;;;;;-3.99;100.00;97242.42;108626;1264;71946;-63
2024/01/18 06:32:18;;;;;;;32.40;14.60;;;;;;;-4.01;100.00;97244.79;108642;1264;67869;-63
2024/01/18 06:35:07;;;;;;;32.80;14.60;;;;;;;-4.01;100.00;97248.14;108707;1264;72466;-64
2024/01/18 06:37:55;;;;;;;33.70;14.70;;;;;;;-4.02;100.00;97252.02;108571;1264;58830;-63
2024/01/18 06:40:43;;;;;;;35.40;15.40;;;;;;;-4.04;100.00;97247.44;108227;1269;61134;-63
2024/01/18 06:43:31;;;;;;;33.70;15.40;;;;;;;-4.05;100.00;97242.98;108364;1268;72952;-64
2024/01/18 06:46:20;;;;;;;35.00;15.20;;;;;;;-4.07;100.00;97244.67;108390;1269;67932;-62
2024/01/18 06:49:08;;;;;;;36.00;15.90;;;;;;;-4.09;100.00;97248.24;108295;1270;72799;-65
2024/01/18 06:51:57;;;;;;;38.40;16.80;;;;;;;-4.11;100.00;97249.76;108342;1269;58070;-63
2024/01/18 06:54:45;;;;;;;36.80;15.40;;;;;;;-4.13;100.00;97253.88;108246;1269;60084;-64
2024/01/18 06:57:34;;;;;;;35.00;15.30;;;;;;;-4.16;100.00;97253.02;108250;1270;74064;-64
2024/01/18 07:00:24;;;;;;;35.30;16.90;;;;;;;-4.16;100.00;97259.45;108235;1273;67804;-65
2024/01/18 07:03:13;;;;;;;37.00;16.30;;;;;;;-4.17;100.00;97255.29;108363;1269;72661;-64
2024/01/18 07:06:03;;;;;;;37.90;15.80;;;;;;;-4.14;100.00;97258.43;108352;1270;59544;-64
2024/01/18 07:08:51;;;;;;;40.10;16.50;;;;;;;-4.11;100.00;97262.06;108248;1270;60315;-64
2024/01/18 07:11:39;;;;;;;34.50;14.70;;;;;;;-4.09;100.00;97267.48;108482;1264;73134;-62
2024/01/18 07:14:27;;;;;;;33.70;14.60;;;;;;;-4.06;100.00;97263.00;108751;1264;68983;-63
2024/01/18 07:17:20;;;;;;;32.90;14.90;;;;;;;-4.03;100.00;97271.08;108626;1264;72629;-64
2024/01/18 07:20:08;;;;;;;36.10;14.80;;;;;;;-4.01;100.00;97277.58;108599;1264;57364;-63
2024/01/18 07:22:56;;;;;;;30.10;13.70;;;;;;;-4.01;100.00;97284.61;108624;1267;59477;-64
2024/01/18 07:25:44;;;;;;;35.90;14.80;;;;;;;-4.00;100.00;97282.84;107921;1267;1002896;-64
2024/01/18 07:28:31;;;;;;;38.30;16.50;;;;;;;-4.00;100.00;97279.73;108765;1264;66929;-61
2024/01/18 07:31:20;;;;;;;33.40;15.30;;;;;;;-3.99;100.00;97280.03;108618;1264;72659;-65
2024/01/18 07:34:08;;;;;;;35.20;16.40;;;;;;;-3.98;100.00;97284.84;108636;1264;59955;-65
2024/01/18 07:36:57;;;;;;;35.00;16.30;;;;;;;-3.96;100.00;97292.47;108783;1264;58908;-64
2024/01/18 07:39:45;;;;;;;34.00;15.70;;;;;;;-3.91;100.00;97299.48;107872;1264;1002415;-62
2024/01/18 07:42:34;;;;;;;34.40;15.80;;;;;;;-3.86;100.00;97303.84;108726;1264;66783;-64
2024/01/18 07:45:25;;;;;;;30.50;14.50;;;;;;;-3.79;100.00;97302.99;108649;1264;72806;-65
2024/01/18 07:48:13;;;;;;;30.40;13.70;;;;;;;-3.71;100.00;97303.59;108733;1264;57326;-63
2024/01/18 07:51:01;;;;;;;22.50;9.70;;;;;;;-3.64;100.00;97310.77;108745;1264;59111;-64
2024/01/18 07:53:49;;;;;;;31.70;12.10;;;;;;;-3.60;100.00;97314.48;108645;1264;74095;-65
2024/01/18 07:56:36;;;;;;;32.40;15.00;;;;;;;-3.55;100.00;97319.54;108795;1264;68889;-64
2024/01/18 07:59:24;;;;;;;24.00;10.70;;;;;;;-3.52;100.00;97310.69;108746;1264;71332;-63
2024/01/18 08:02:13;;;;;;;28.60;12.80;;;;;;;-3.49;100.00;97313.27;108727;1264;58650;-66
2024/01/18 08:05:01;;;;;;;36.30;14.80;;;;;;;-3.45;100.00;97319.92;108608;1264;60073;-62
2024/01/18 08:07:49;;;;;;;33.00;14.10;;;;;;;-3.41;100.00;97327.62;108624;1264;74053;-64
2024/01/18 08:10:37;;;;;;;32.20;14.80;;;;;;;-3.37;100.00;97324.99;108395;1264;65675;-62
2024/01/18 08:13:25;;;;;;;33.00;14.90;;;;;;;-3.23;100.00;97336.39;108543;1263;70374;-62
2024/01/18 08:16:13;;;;;;;29.70;13.80;;;;;;;-3.07;100.00;97341.38;108741;1264;58528;-62
2024/01/18 08:19:00;;;;;;;37.50;14.30;;;;;;;-2.87;100.00;97340.63;108645;1263;61106;-65
2024/01/18 08:21:49;;;;;;;31.70;13.70;;;;;;;-2.70;100.00;97341.08;107984;1263;1003030;-63
2024/01/18 08:24:38;;;;;;;29.80;12.40;;;;;;;-2.50;100.00;97345.96;108605;1264;67720;-64
2024/01/18 08:27:27;;;;;;;31.80;14.80;;;;;;;-2.25;100.00;97354.84;108760;1263;71450;-63
2024/01/18 08:30:14;;;;;;;31.60;14.00;;;;;;;-1.95;100.00;97355.41;108645;1263;57620;-64
2024/01/18 08:33:03;;;;;;;29.70;13.50;;;;;;;-1.35;100.00;97362.95;107964;1263;1002410;-63
2024/01/18 08:35:51;;;;;;;31.40;14.60;;;;;;;0.12;100.00;97364.58;108578;1263;71892;-65
2024/01/18 08:38:39;;;;;;;30.70;13.50;;;;;;;1.96;97.54;97362.42;108732;1263;66859;-67
2024/01/18 08:41:26;;;;;;;33.70;15.60;;;;;;;3.68;91.21;97353.52;108626;1263;72795;-65
2024/01/18 08:44:14;;;;;;;29.40;13.80;;;;;;;4.80;84.14;97342.63;108744;1264;57318;-64
2024/01/18 08:47:02;;;;;;;26.50;12.80;;;;;;;5.51;78.04;97346.38;108738;1264;59078;-63
2024/01/18 08:49:50;;;;;;;24.70;12.80;;;;;;;5.62;70.47;97347.17;108587;1264;73776;-63
2024/01/18 08:52:39;;;;;;;27.10;12.60;;;;;;;4.98;71.33;97360.17;108598;1264;68931;-66
2024/01/18 08:55:27;;;;;;;22.60;11.40;;;;;;;4.46;72.49;97366.23;108760;1264;74083;-63
2024/01/18 08:58:16;;;;;;;27.20;12.70;;;;;;;5.13;71.75;97365.41;108709;1264;57321;-64
2024/01/18 09:01:04;;;;;;;25.40;12.20;;;;;;;4.95;70.39;97373.11;108784;1264;58144;-65
2024/01/18 09:03:53;;;;;;;25.00;11.10;;;;;;;5.25;70.40;97369.66;108788;1264;74136;-64
2024/01/18 09:06:41;;;;;;;22.60;11.10;;;;;;;5.37;67.37;97379.61;108766;1264;67887;-65
2024/01/18 09:09:29;;;;;;;24.30;12.60;;;;;;;4.80;67.34;97385.65;107795;1264;1002729;-64
2024/01/18 09:12:17;;;;;;;26.70;11.40;;;;;;;4.17;68.34;97391.95;108786;1263;57251;-63
2024/01/18 09:15:06;;;;;;;22.50;10.50;;;;;;;3.65;70.24;97394.27;108789;1264;60330;-64
2024/01/18 09:17:54;;;;;;;23.90;10.70;;;;;;;3.26;71.31;97392.75;108600;1265;73786;-62
2024/01/18 09:20:45;;;;;;;23.40;10.50;;;;;;;2.96;72.46;97401.36;108602;1265;68615;-62
2024/01/18 09:23:32;;;;;;;21.90;9.70;;;;;;;2.52;73.60;97409.06;108728;1265;73500;-63
2024/01/18 09:26:20;;;;;;;20.10;9.20;;;;;;;2.24;75.13;97419.71;108639;1265;57310;-63
2024/01/18 09:29:08;;;;;;;21.20;9.10;;;;;;;1.95;75.86;97421.56;108670;1266;61903;-62
2024/01/18 09:31:56;;;;;;;21.00;8.50;;;;;;;1.75;76.83;97428.55;108496;1264;239237;-62
2024/01/18 09:34:45;;;;;;;28.20;10.40;;;;;;;1.65;77.76;97430.34;108618;1266;68973;-63
2024/01/18 09:37:32;;;;;;;21.70;9.20;;;;;;;1.42;77.85;97434.59;108528;1264;73678;-64
2024/01/18 09:40:22;;;;;;;20.60;7.90;;;;;;;1.30;79.16;97436.58;108603;1265;58727;-62
2024/01/18 09:43:11;;;;;;;20.60;8.60;;;;;;;1.43;79.61;97439.90;108605;1264;60216;-63
2024/01/18 09:45:59;;;;;;;17.00;8.60;;;;;;;1.71;79.44;97438.49;108695;1264;70834;-64
2024/01/18 09:48:47;;;;;;;19.90;8.70;;;;;;;1.86;77.98;97444.73;108653;1264;66960;-63
2024/01/18 09:51:35;;;;;;;17.00;7.00;;;;;;;1.89;77.77;97448.20;108729;1264;71586;-61
2024/01/18 09:54:24;;;;;;;19.60;6.90;;;;;;;1.89;77.26;97449.21;107716;1265;1003006;-63
2024/01/18 09:57:22;;;;;;;22.40;7.90;;;;;;;2.13;77.91;97449.49;108738;1265;60260;-64
2024/01/18 10:00:15;;;;;;;18.30;7.10;;;;;;;2.59;76.89;97455.56;108471;1265;71916;-64
2024/01/18 10:03:04;;;;;;;20.80;8.30;;;;;;;2.77;75.65;97459.79;108160;1266;68678;-64
2024/01/18 10:05:52;;;;;;;21.40;9.30;;;;;;;3.15;74.60;97455.24;108744;1265;72663;-62
2024/01/18 10:08:40;;;;;;;19.50;7.50;;;;;;;3.86;72.82;97453.73;108572;1267;57353;-62
2024/01/18 10:11:28;;;;;;;15.90;7.00;;;;;;;5.92;67.96;97442.13;108568;1264;60447;-62
2024/01/18 10:14:16;;;;;;;17.20;7.80;;;;;;;6.95;62.28;97439.77;108742;1265;71724;-61
2024/01/18 10:17:04;;;;;;;17.60;7.70;;;;;;;7.26;60.53;97441.24;108666;1264;67759;-62
2024/01/18 10:19:55;;;;;;;15.20;6.40;;;;;;;8.34;54.95;97440.45;108765;1264;71398;-66
2024/01/18 10:22:45;;;;;;;14.50;6.30;;;;;;;8.94;51.39;97444.61;108664;1264;57350;-63
2024/01/18 10:25:33;;;;;;;14.30;6.30;;;;;;;8.42;52.01;97445.73;108653;1264;57773;-61
2024/01/18 10:28:23;;;;;;;18.50;6.50;;;;;;;7.74;52.75;97445.70;105686;1264;1002859;-62
2024/01/18 10:31:11;;;;;;;15.40;6.30;;;;;;;7.00;53.69;97454.34;108648;1264;68713;-64
2024/01/18 10:33:58;;;;;;;12.50;5.80;;;;;;;6.70;54.86;97456.17;108650;1264;72420;-62
2024/01/18 10:36:46;;;;;;;12.60;5.10;;;;;;;8.72;53.24;97460.62;108740;1263;58180;-62
2024/01/18 10:39:41;;;;;;;11.40;5.40;;;;;;;10.60;48.31;97454.73;108783;1264;58998;-65
2024/01/18 10:42:30;;;;;;;11.00;5.30;;;;;;;12.12;44.46;97448.92;108661;1263;73887;-63
2024/01/18 10:45:18;;;;;;;13.80;5.50;;;;;;;13.22;41.45;97450.35;108589;1264;67675;-62
2024/01/18 10:48:06;;;;;;;11.80;5.50;;;;;;;14.36;38.96;97449.45;108660;1264;73452;-63
2024/01/18 10:50:55;;;;;;;13.30;5.70;;;;;;;14.80;37.03;97448.54;108674;1264;57348;-65
2024/01/18 10:53:46;;;;;;;10.50;4.60;;;;;;;15.53;35.41;97454.27;108775;1264;61349;-63
2024/01/18 10:56:34;;;;;;;12.10;5.40;;;;;;;15.41;34.18;97453.69;108654;1263;73322;-64
2024/01/18 10:59:23;;;;;;;12.20;5.50;;;;;;;14.92;34.83;97452.55;108706;1264;67630;-65
2024/01/18 11:02:13;;;;;;;11.10;4.90;;;;;;;14.83;34.12;97454.70;108708;1264;72439;-63
2024/01/18 11:05:02;;;;;;;13.20;5.50;;;;;;;15.23;34.32;97457.11;108624;1264;57369;-66
2024/01/18 11:07:51;;;;;;;13.00;5.90;;;;;;;15.73;32.84;97455.89;108621;1264;60301;-62
2024/01/18 11:10:43;;;;;;;13.10;5.80;;;;;;;16.25;31.91;97452.33;108640;1263;72930;-63
2024/01/18 11:13:31;;;;;;;11.00;5.50;;;;;;;16.80;31.40;97459.51;108779;1264;69346;-62
2024/01/18 11:16:19;;;;;;;13.00;5.40;;;;;;;16.74;30.47;97459.65;108643;1264;70463;-62
2024/01/18 11:19:06;;;;;;;10.80;5.20;;;;;;;16.61;30.55;97455.98;108470;1264;57712;-63
2024/01/18 11:21:55;;;;;;;9.80;4.50;;;;;;;16.68;30.22;97462.40;108653;1264;61313;-63
2024/01/18 11:24:42;;;;;;;11.20;4.40;;;;;;;16.31;30.51;97462.57;108637;1264;73841;-63
2024/01/18 11:27:38;;;;;;;10.80;4.80;;;;;;;16.46;30.57;97461.95;108748;1264;69282;-63
2024/01/18 11:30:35;;;;;;;14.70;5.00;;;;;;;16.50;30.42;97463.31;108653;1264;71192;-64
2024/01/18 11:33:24;;;;;;;9.80;4.30;;;;;;;16.46;30.51;97464.05;108635;1264;57656;-62
2024/01/18 11:36:13;;;;;;;11.30;4.90;;;;;;;16.59;30.31;97464.23;108640;1264;60381;-65
2024/01/18 11:39:02;;;;;;;11.70;5.10;;;;;;;16.32;29.93;97467.89;108690;1264;72172;-63
2024/01/18 11:41:50;;;;;;;11.70;4.90;;;;;;;15.77;29.66;97468.70;108789;1264;67591;-62
2024/01/18 11:45:17;;;;;;;10.50;4.30;;;;;;;14.91;30.59;97473.69;108767;1264;72685;-61
2024/01/18 11:48:06;;;;;;;11.80;4.90;;;;;;;14.79;31.53;97476.59;108608;1264;57342;-63
2024/01/18 11:50:55;;;;;;;8.80;3.90;;;;;;;14.65;32.09;97476.52;108770;1264;59091;-63
2024/01/18 11:53:44;;;;;;;11.70;5.00;;;;;;;14.21;32.01;97478.42;108795;1264;72614;-63
2024/01/18 11:56:38;;;;;;;10.60;4.70;;;;;;;13.81;32.79;97477.62;108793;1264;67906;-62
2024/01/18 11:59:30;;;;;;;10.90;4.40;;;;;;;13.48;33.16;97487.94;108635;1264;73754;-64
2024/01/18 12:02:20;;;;;;;11.20;5.10;;;;;;;12.71;33.60;97488.38;108586;1264;57320;-63
2024/01/18 12:05:08;;;;;;;11.10;4.40;;;;;;;12.13;34.76;97487.46;108662;1264;57865;-63
2024/01/18 12:07:57;;;;;;;12.40;5.30;;;;;;;11.86;35.55;97489.66;108603;1263;72951;-65
2024/01/18 12:10:45;;;;;;;14.30;5.20;;;;;;;11.63;35.78;97493.94;108768;1264;67914;-63
2024/01/18 12:13:35;;;;;;;11.80;5.00;;;;;;;11.37;36.30;97493.64;108589;1264;73089;-62
2024/01/18 12:16:23;;;;;;;12.90;4.80;;;;;;;11.19;37.05;97492.27;108750;1264;57980;-64
2024/01/18 12:19:11;;;;;;;12.80;5.50;;;;;;;10.98;37.15;97500.38;108660;1264;58844;-62
2024/01/18 12:22:12;;;;;;;13.10;4.80;;;;;;;10.58;38.04;97494.86;108690;1264;72151;-64
2024/01/18 12:25:00;;;;;;;13.00;5.00;;;;;;;10.34;38.42;97502.13;108670;1264;68937;-62
2024/01/18 12:27:53;;;;;;;12.40;4.60;;;;;;;10.09;39.05;97506.04;108650;1264;72079;-62
2024/01/18 12:30:43;;;;;;;13.50;4.70;;;;;;;9.74;39.24;97513.38;108623;1264;57339;-63
2024/01/18 12:33:34;;;;;;;11.40;4.10;;;;;;;9.45;40.14;97522.17;108664;1264;60387;-62
2024/01/18 12:36:22;;;;;;;12.50;4.40;;;;;;;8.95;40.57;97523.32;108681;1264;73888;-63
2024/01/18 12:39:11;;;;;;;11.20;4.40;;;;;;;8.65;41.68;97522.64;108650;1264;68622;-65
2024/01/18 12:41:59;;;;;;;12.10;3.90;;;;;;;8.38;42.24;97523.73;108778;1264;72436;-62
2024/01/18 12:44:54;;;;;;;11.00;4.30;;;;;;;7.90;42.77;97527.86;108795;1263;57733;-61
2024/01/18 12:47:42;;;;;;;14.20;4.20;;;;;;;7.62;43.48;97531.83;108822;1264;61328;-64